sensor_id;sensor_type;location;lat;lon;timestamp;pressure;altitude;pressure_sealevel;temperature;humidity
9439;BME280;5176;42.622;25.386;2023-04-21T00:00:11;96769.38;;;13.14;100.00
9439;BME280;5176;42.622;25.386;2023-04-21T00:02:40;96774.03;;;13.10;100.00
9439;BME280;5176;42.622;25.386;2023-04-21T00:05:09;96774.28;;;13.07;100.00
9439;BME280;5176;42.622;25.386;2023-04-21T00:07:39;96766.75;;;13.02;100.00
9439;BME280;5176;42.622;25.386;2023-04-21T00:10:09;96756.84;;;12.95;100.00
9439;BME280;5176;42.622;25.386;2023-04-21T00:12:38;96760.59;;;12.92;100.00
9439;BME280;5176;42.622;25.386;2023-04-21T00:15:09;96753.41;;;12.94;100.00
9439;BME280;5176;42.622;25.386;2023-04-21T00:17:38;96751.72;;;12.93;100.00
9439;BME280;5176;42.622;25.386;2023-04-21T00:20:09;96747.31;;;12.94;100.00
9439;BME280;5176;42.622;25.386;2023-04-21T00:22:37;96747.31;;;12.94;100.00
9439;BME280;5176;42.622;25.386;2023-04-21T00:25:07;96742.41;;;12.89;100.00
9439;BME280;5176;42.622;25.386;2023-04-21T00:27:35;96730.91;;;12.90;100.00
9439;BME280;5176;42.622;25.386;2023-04-21T00:30:05;96736.81;;;12.82;100.00
9439;BME280;5176;42.622;25.386;2023-04-21T00:32:35;96736.22;;;12.79;100.00
9439;BME280;5176;42.622;25.386;2023-04-21T00:35:05;96732.03;;;12.76;100.00
9439;BME280;5176;42.622;25.386;2023-04-21T00:37:34;96729.69;;;12.62;100.00
9439;BME280;5176;42.622;25.386;2023-04-21T00:40:03;96731.13;;;12.55;100.00
9439;BME280;5176;42.622;25.386;2023-04-21T00:42:32;96738.19;;;12.54;100.00
9439;BME280;5176;42.622;25.386;2023-04-21T00:45:01;96736.50;;;12.53;100.00
9439;BME280;5176;42.622;25.386;2023-04-21T00:47:30;96731.88;;;12.46;100.00
9439;BME280;5176;42.622;25.386;2023-04-21T00:50:00;96736.88;;;12.49;100.00
9439;BME280;5176;42.622;25.386;2023-04-21T00:52:30;96728.97;;;12.49;100.00
9439;BME280;5176;42.622;25.386;2023-04-21T00:54:59;96722.53;;;12.42;100.00
9439;BME280;5176;42.622;25.386;2023-04-21T00:57:28;96733.88;;;12.42;100.00
9439;BME280;5176;42.622;25.386;2023-04-21T00:59:59;96727.81;;;12.42;100.00
9439;BME280;5176;42.622;25.386;2023-04-21T01:02:27;96724.94;;;12.45;100.00
9439;BME280;5176;42.622;25.386;2023-04-21T01:04:56;96717.75;;;12.47;100.00
9439;BME280;5176;42.622;25.386;2023-04-21T01:07:27;96718.72;;;12.46;100.00
9439;BME280;5176;42.622;25.386;2023-04-21T01:09:56;96720.25;;;12.48;100.00
9439;BME280;5176;42.622;25.386;2023-04-21T01:12:25;96707.13;;;12.48;100.00
9439;BME280;5176;42.622;25.386;2023-04-21T01:14:54;96718.13;;;12.42;100.00
9439;BME280;5176;42.622;25.386;2023-04-21T01:17:23;96713.13;;;12.39;100.00
9439;BME280;5176;42.622;25.386;2023-04-21T01:19:55;96703.94;;;12.34;100.00
9439;BME280;5176;42.622;25.386;2023-04-21T01:22:27;96706.69;;;12.32;100.00
9439;BME280;5176;42.622;25.386;2023-04-21T01:24:56;96709.78;;;12.26;100.00
9439;BME280;5176;42.622;25.386;2023-04-21T01:27:25;96705.84;;;12.20;100.00
9439;BME280;5176;42.622;25.386;2023-04-21T01:29:54;96705.38;;;12.15;100.00
9439;BME280;5176;42.622;25.386;2023-04-21T01:32:24;96707.50;;;12.10;100.00
9439;BME280;5176;42.622;25.386;2023-04-21T01:34:54;96703.47;;;12.06;100.00
9439;BME280;5176;42.622;25.386;2023-04-21T01:37:24;96708.03;;;12.04;100.00
9439;BME280;5176;42.622;25.386;2023-04-21T01:39:57;96701.06;;;12.03;100.00
9439;BME280;5176;42.622;25.386;2023-04-21T01:42:28;96707.91;;;12.06;100.00
9439;BME280;5176;42.622;25.386;2023-04-21T01:44:57;96705.97;;;11.96;100.00
9439;BME280;5176;42.622;25.386;2023-04-21T01:47:26;96701.09;;;11.92;100.00
9439;BME280;5176;42.622;25.386;2023-04-21T01:49:55;96707.31;;;11.91;100.00
9439;BME280;5176;42.622;25.386;2023-04-21T01:52:24;96700.97;;;11.93;100.00
9439;BME280;5176;42.622;25.386;2023-04-21T01:54:54;96706.81;;;11.86;100.00
9439;BME280;5176;42.622;25.386;2023-04-21T01:57:23;96699.38;;;11.80;100.00
9439;BME280;5176;42.622;25.386;2023-04-21T01:59:51;96695.53;;;11.61;100.00
9439;BME280;5176;42.622;25.386;2023-04-21T02:02:20;96702.00;;;11.57;100.00
9439;BME280;5176;42.622;25.386;2023-04-21T02:04:49;96703.97;;;11.42;100.00
9439;BME280;5176;42.622;25.386;2023-04-21T02:07:18;96695.81;;;11.23;100.00
9439;BME280;5176;42.622;25.386;2023-04-21T02:09:47;96698.81;;;10.95;100.00
9439;BME280;5176;42.622;25.386;2023-04-21T02:12:17;96692.19;;;10.78;100.00
9439;BME280;5176;42.622;25.386;2023-04-21T02:14:46;96696.09;;;10.72;100.00
9439;BME280;5176;42.622;25.386;2023-04-21T02:17:15;96699.44;;;10.74;100.00
9439;BME280;5176;42.622;25.386;2023-04-21T02:19:44;96695.03;;;10.75;100.00
9439;BME280;5176;42.622;25.386;2023-04-21T02:22:20;96688.00;;;10.75;100.00
9439;BME280;5176;42.622;25.386;2023-04-21T02:24:49;96687.16;;;10.75;100.00
9439;BME280;5176;42.622;25.386;2023-04-21T02:27:20;96695.41;;;10.81;100.00
9439;BME280;5176;42.622;25.386;2023-04-21T02:29:48;96693.38;;;10.74;100.00
9439;BME280;5176;42.622;25.386;2023-04-21T02:32:17;96690.22;;;10.69;100.00
9439;BME280;5176;42.622;25.386;2023-04-21T02:34:46;96692.97;;;10.67;100.00
9439;BME280;5176;42.622;25.386;2023-04-21T02:37:15;96690.69;;;10.62;100.00
9439;BME280;5176;42.622;25.386;2023-04-21T02:39:44;96684.50;;;10.63;100.00
9439;BME280;5176;42.622;25.386;2023-04-21T02:42:12;96683.75;;;10.61;100.00
9439;BME280;5176;42.622;25.386;2023-04-21T02:44:43;96682.50;;;10.67;100.00
9439;BME280;5176;42.622;25.386;2023-04-21T02:47:14;96681.03;;;10.63;100.00
9439;BME280;5176;42.622;25.386;2023-04-21T02:49:44;96680.44;;;10.59;100.00
9439;BME280;5176;42.622;25.386;2023-04-21T02:52:12;96681.59;;;10.55;100.00
9439;BME280;5176;42.622;25.386;2023-04-21T02:54:41;96680.16;;;10.51;100.00
9439;BME280;5176;42.622;25.386;2023-04-21T02:57:10;96680.16;;;10.51;100.00
9439;BME280;5176;42.622;25.386;2023-04-21T02:59:39;96685.84;;;10.45;100.00
9439;BME280;5176;42.622;25.386;2023-04-21T03:02:09;96684.25;;;10.43;100.00
9439;BME280;5176;42.622;25.386;2023-04-21T03:04:38;96685.75;;;10.34;100.00
9439;BME280;5176;42.622;25.386;2023-04-21T03:07:11;96687.03;;;10.28;100.00
9439;BME280;5176;42.622;25.386;2023-04-21T03:09:40;96694.44;;;10.22;100.00
9439;BME280;5176;42.622;25.386;2023-04-21T03:12:08;96695.84;;;10.15;100.00
9439;BME280;5176;42.622;25.386;2023-04-21T03:14:37;96709.47;;;10.07;100.00
9439;BME280;5176;42.622;25.386;2023-04-21T03:17:06;96711.06;;;9.97;100.00
9439;BME280;5176;42.622;25.386;2023-04-21T03:19:36;96701.88;;;9.91;100.00
9439;BME280;5176;42.622;25.386;2023-04-21T03:22:05;96704.25;;;9.94;100.00
9439;BME280;5176;42.622;25.386;2023-04-21T03:24:33;96712.53;;;9.88;100.00
9439;BME280;5176;42.622;25.386;2023-04-21T03:27:04;96704.25;;;9.81;100.00
9439;BME280;5176;42.622;25.386;2023-04-21T03:29:34;96708.47;;;9.84;100.00
9439;BME280;5176;42.622;25.386;2023-04-21T03:32:04;96704.19;;;9.83;100.00
9439;BME280;5176;42.622;25.386;2023-04-21T03:34:33;96711.41;;;9.79;100.00
9439;BME280;5176;42.622;25.386;2023-04-21T03:37:03;96704.19;;;9.70;100.00
9439;BME280;5176;42.622;25.386;2023-04-21T03:39:32;96696.94;;;9.74;100.00
9439;BME280;5176;42.622;25.386;2023-04-21T03:42:00;96705.53;;;9.76;100.00
9439;BME280;5176;42.622;25.386;2023-04-21T03:44:31;96703.66;;;9.78;100.00
9439;BME280;5176;42.622;25.386;2023-04-21T03:47:01;96703.66;;;9.78;100.00
9439;BME280;5176;42.622;25.386;2023-04-21T03:49:33;96704.38;;;9.80;100.00
9439;BME280;5176;42.622;25.386;2023-04-21T03:52:03;96708.88;;;9.78;100.00
9439;BME280;5176;42.622;25.386;2023-04-21T03:54:32;96697.91;;;9.73;100.00
9439;BME280;5176;42.622;25.386;2023-04-21T03:57:01;96704.69;;;9.37;100.00
9439;BME280;5176;42.622;25.386;2023-04-21T03:59:30;96704.28;;;9.31;100.00
9439;BME280;5176;42.622;25.386;2023-04-21T04:01:59;96712.94;;;9.18;100.00
9439;BME280;5176;42.622;25.386;2023-04-21T04:04:27;96714.19;;;9.13;100.00
9439;BME280;5176;42.622;25.386;2023-04-21T04:06:56;96724.50;;;9.01;100.00
9439;BME280;5176;42.622;25.386;2023-04-21T04:09:26;96724.91;;;8.95;100.00
9439;BME280;5176;42.622;25.386;2023-04-21T04:11:55;96723.03;;;8.97;100.00
9439;BME280;5176;42.622;25.386;2023-04-21T04:14:23;96722.72;;;9.02;100.00
9439;BME280;5176;42.622;25.386;2023-04-21T04:16:52;96725.03;;;9.07;100.00
9439;BME280;5176;42.622;25.386;2023-04-21T04:19:21;96726.13;;;9.17;100.00
9439;BME280;5176;42.622;25.386;2023-04-21T04:21:50;96717.88;;;9.23;100.00
9439;BME280;5176;42.622;25.386;2023-04-21T04:24:18;96720.69;;;9.33;100.00
9439;BME280;5176;42.622;25.386;2023-04-21T04:26:49;96719.44;;;9.38;100.00
9439;BME280;5176;42.622;25.386;2023-04-21T04:29:20;96730.44;;;9.56;100.00
9439;BME280;5176;42.622;25.386;2023-04-21T04:31:49;96728.88;;;9.66;100.00
9439;BME280;5176;42.622;25.386;2023-04-21T04:34:18;96731.09;;;9.72;100.00
9439;BME280;5176;42.622;25.386;2023-04-21T04:36:49;96739.97;;;9.82;100.00
9439;BME280;5176;42.622;25.386;2023-04-21T04:39:18;96732.34;;;9.92;100.00
9439;BME280;5176;42.622;25.386;2023-04-21T04:41:49;96732.44;;;10.03;100.00
9439;BME280;5176;42.622;25.386;2023-04-21T04:44:18;96732.50;;;10.02;100.00
9439;BME280;5176;42.622;25.386;2023-04-21T04:46:47;96738.59;;;10.02;100.00
9439;BME280;5176;42.622;25.386;2023-04-21T04:49:15;96740.91;;;10.07;100.00
9439;BME280;5176;42.622;25.386;2023-04-21T04:51:44;96744.47;;;10.06;100.00
9439;BME280;5176;42.622;25.386;2023-04-21T04:54:12;96736.38;;;10.09;100.00
9439;BME280;5176;42.622;25.386;2023-04-21T04:56:41;96739.75;;;10.11;100.00
9439;BME280;5176;42.622;25.386;2023-04-21T04:59:11;96742.88;;;10.16;100.00
9439;BME280;5176;42.622;25.386;2023-04-21T05:01:40;96731.47;;;10.17;100.00
9439;BME280;5176;42.622;25.386;2023-04-21T05:04:09;96735.53;;;10.21;100.00
9439;BME280;5176;42.622;25.386;2023-04-21T05:06:42;96738.38;;;10.31;100.00
9439;BME280;5176;42.622;25.386;2023-04-21T05:09:10;96733.19;;;10.42;100.00
9439;BME280;5176;42.622;25.386;2023-04-21T05:11:39;96737.88;;;10.50;100.00
9439;BME280;5176;42.622;25.386;2023-04-21T05:14:08;96732.72;;;10.61;100.00
9439;BME280;5176;42.622;25.386;2023-04-21T05:16:38;96741.94;;;10.67;100.00
9439;BME280;5176;42.622;25.386;2023-04-21T05:19:07;96742.63;;;10.81;100.00
9439;BME280;5176;42.622;25.386;2023-04-21T05:21:36;96728.34;;;10.85;100.00
9439;BME280;5176;42.622;25.386;2023-04-21T05:24:04;96726.63;;;10.97;100.00
9439;BME280;5176;42.622;25.386;2023-04-21T05:26:33;96730.53;;;11.03;100.00
9439;BME280;5176;42.622;25.386;2023-04-21T05:29:02;96727.38;;;11.10;100.00
9439;BME280;5176;42.622;25.386;2023-04-21T05:31:30;96733.72;;;11.19;100.00
9439;BME280;5176;42.622;25.386;2023-04-21T05:34:00;96733.41;;;11.24;100.00
9439;BME280;5176;42.622;25.386;2023-04-21T05:36:29;96735.31;;;11.33;100.00
9439;BME280;5176;42.622;25.386;2023-04-21T05:38:58;96725.91;;;11.30;100.00
9439;BME280;5176;42.622;25.386;2023-04-21T05:41:26;96721.75;;;11.39;100.00
9439;BME280;5176;42.622;25.386;2023-04-21T05:43:55;96724.38;;;11.39;100.00
9439;BME280;5176;42.622;25.386;2023-04-21T05:46:25;96724.03;;;11.43;100.00
9439;BME280;5176;42.622;25.386;2023-04-21T05:48:53;96732.16;;;11.52;100.00
9439;BME280;5176;42.622;25.386;2023-04-21T05:51:23;96725.50;;;11.59;100.00
9439;BME280;5176;42.622;25.386;2023-04-21T05:53:53;96720.59;;;11.77;100.00
9439;BME280;5176;42.622;25.386;2023-04-21T05:56:21;96718.03;;;11.88;100.00
9439;BME280;5176;42.622;25.386;2023-04-21T05:58:50;96720.19;;;12.05;100.00
9439;BME280;5176;42.622;25.386;2023-04-21T06:01:19;96721.63;;;12.09;100.00
9439;BME280;5176;42.622;25.386;2023-04-21T06:03:47;96720.41;;;12.02;100.00
9439;BME280;5176;42.622;25.386;2023-04-21T06:06:16;96723.41;;;12.20;100.00
9439;BME280;5176;42.622;25.386;2023-04-21T06:08:46;96714.22;;;12.25;98.32
9439;BME280;5176;42.622;25.386;2023-04-21T06:11:15;96715.41;;;12.33;98.78
9439;BME280;5176;42.622;25.386;2023-04-21T06:13:43;96710.16;;;12.33;98.26
9439;BME280;5176;42.622;25.386;2023-04-21T06:16:12;96715.19;;;12.24;98.14
9439;BME280;5176;42.622;25.386;2023-04-21T06:18:41;96716.09;;;12.23;98.56
9439;BME280;5176;42.622;25.386;2023-04-21T06:21:10;96714.91;;;12.16;98.15
9439;BME280;5176;42.622;25.386;2023-04-21T06:23:38;96708.81;;;12.38;98.15
9439;BME280;5176;42.622;25.386;2023-04-21T06:26:09;96703.88;;;12.56;98.62
9439;BME280;5176;42.622;25.386;2023-04-21T06:28:37;96709.38;;;12.64;97.64
9439;BME280;5176;42.622;25.386;2023-04-21T06:31:06;96715.75;;;12.82;95.99
9439;BME280;5176;42.622;25.386;2023-04-21T06:33:35;96716.41;;;13.07;95.86
9439;BME280;5176;42.622;25.386;2023-04-21T06:36:05;96709.19;;;13.20;94.38
9439;BME280;5176;42.622;25.386;2023-04-21T06:38:33;96712.34;;;13.35;92.07
9439;BME280;5176;42.622;25.386;2023-04-21T06:41:02;96715.06;;;13.45;92.50
9439;BME280;5176;42.622;25.386;2023-04-21T06:43:32;96716.47;;;13.49;91.76
9439;BME280;5176;42.622;25.386;2023-04-21T06:46:01;96715.81;;;13.56;92.55
9439;BME280;5176;42.622;25.386;2023-04-21T06:48:30;96718.38;;;13.68;93.59
9439;BME280;5176;42.622;25.386;2023-04-21T06:50:58;96717.59;;;13.77;93.22
9439;BME280;5176;42.622;25.386;2023-04-21T06:53:28;96711.59;;;13.96;93.85
9439;BME280;5176;42.622;25.386;2023-04-21T06:55:57;96715.00;;;14.07;92.59
9439;BME280;5176;42.622;25.386;2023-04-21T06:58:25;96719.06;;;14.21;92.75
9439;BME280;5176;42.622;25.386;2023-04-21T07:00:55;96718.56;;;14.37;92.36
9439;BME280;5176;42.622;25.386;2023-04-21T07:03:24;96709.22;;;14.54;91.94
9439;BME280;5176;42.622;25.386;2023-04-21T07:05:53;96711.75;;;14.65;91.13
9439;BME280;5176;42.622;25.386;2023-04-21T07:08:21;96709.94;;;14.75;91.23
9439;BME280;5176;42.622;25.386;2023-04-21T07:10:50;96711.06;;;14.82;91.63
9439;BME280;5176;42.622;25.386;2023-04-21T07:13:19;96710.25;;;14.91;91.94
9439;BME280;5176;42.622;25.386;2023-04-21T07:15:48;96711.38;;;14.98;92.06
9439;BME280;5176;42.622;25.386;2023-04-21T07:18:18;96709.97;;;15.04;85.85
9439;BME280;5176;42.622;25.386;2023-04-21T07:20:47;96711.66;;;15.15;82.89
9439;BME280;5176;42.622;25.386;2023-04-21T07:23:15;96718.75;;;15.14;79.08
9439;BME280;5176;42.622;25.386;2023-04-21T07:25:44;96717.91;;;15.23;81.38
9439;BME280;5176;42.622;25.386;2023-04-21T07:28:13;96719.16;;;15.39;76.68
9439;BME280;5176;42.622;25.386;2023-04-21T07:30:42;96720.81;;;15.49;80.76
9439;BME280;5176;42.622;25.386;2023-04-21T07:33:11;96712.63;;;15.62;80.35
9439;BME280;5176;42.622;25.386;2023-04-21T07:35:41;96718.38;;;15.95;79.97
9439;BME280;5176;42.622;25.386;2023-04-21T07:38:10;96721.41;;;16.37;74.12
9439;BME280;5176;42.622;25.386;2023-04-21T07:40:38;96718.59;;;16.48;72.08
9439;BME280;5176;42.622;25.386;2023-04-21T07:43:07;96717.34;;;16.80;70.11
9439;BME280;5176;42.622;25.386;2023-04-21T07:45:35;96723.63;;;17.14;67.79
9439;BME280;5176;42.622;25.386;2023-04-21T07:48:04;96725.81;;;17.55;66.74
9439;BME280;5176;42.622;25.386;2023-04-21T07:50:33;96726.03;;;17.79;58.05
9439;BME280;5176;42.622;25.386;2023-04-21T07:53:04;96735.75;;;17.96;55.60
9439;BME280;5176;42.622;25.386;2023-04-21T07:55:33;96727.56;;;18.16;55.06
9439;BME280;5176;42.622;25.386;2023-04-21T07:58:03;96722.28;;;18.16;52.39
9439;BME280;5176;42.622;25.386;2023-04-21T08:00:32;96723.69;;;18.36;50.84
9439;BME280;5176;42.622;25.386;2023-04-21T08:03:00;96723.03;;;18.68;52.60
9439;BME280;5176;42.622;25.386;2023-04-21T08:05:29;96722.94;;;18.94;50.97
9439;BME280;5176;42.622;25.386;2023-04-21T08:07:58;96717.47;;;18.88;50.11
9439;BME280;5176;42.622;25.386;2023-04-21T08:10:28;96724.69;;;18.69;50.29
9439;BME280;5176;42.622;25.386;2023-04-21T08:12:57;96722.25;;;18.84;52.53
9439;BME280;5176;42.622;25.386;2023-04-21T08:15:26;96720.31;;;19.02;52.23
9439;BME280;5176;42.622;25.386;2023-04-21T08:17:54;96718.81;;;19.00;48.33
9439;BME280;5176;42.622;25.386;2023-04-21T08:20:23;96718.19;;;19.30;49.08
9439;BME280;5176;42.622;25.386;2023-04-21T08:22:51;96719.34;;;19.28;46.62
9439;BME280;5176;42.622;25.386;2023-04-21T08:25:20;96722.13;;;19.02;47.22
9439;BME280;5176;42.622;25.386;2023-04-21T08:27:50;96725.16;;;19.15;47.05
9439;BME280;5176;42.622;25.386;2023-04-21T08:30:19;96711.88;;;19.15;45.44
9439;BME280;5176;42.622;25.386;2023-04-21T08:32:47;96718.34;;;19.29;44.37
9439;BME280;5176;42.622;25.386;2023-04-21T08:35:16;96715.53;;;19.55;45.21
9439;BME280;5176;42.622;25.386;2023-04-21T08:37:45;96720.03;;;19.79;44.95
9439;BME280;5176;42.622;25.386;2023-04-21T08:40:14;96715.41;;;19.65;42.99
9439;BME280;5176;42.622;25.386;2023-04-21T08:42:43;96716.91;;;19.75;44.17
9439;BME280;5176;42.622;25.386;2023-04-21T08:45:13;96710.25;;;19.79;44.09
9439;BME280;5176;42.622;25.386;2023-04-21T08:47:42;96715.19;;;20.07;43.58
9439;BME280;5176;42.622;25.386;2023-04-21T08:50:12;96705.00;;;20.19;43.48
9439;BME280;5176;42.622;25.386;2023-04-21T08:52:41;96717.13;;;20.29;42.57
9439;BME280;5176;42.622;25.386;2023-04-21T08:55:12;96721.75;;;20.35;43.06
9439;BME280;5176;42.622;25.386;2023-04-21T08:57:41;96719.25;;;20.42;43.56
9439;BME280;5176;42.622;25.386;2023-04-21T09:00:11;96720.53;;;20.62;42.53
9439;BME280;5176;42.622;25.386;2023-04-21T09:02:54;96716.75;;;20.40;43.72
9439;BME280;5176;42.622;25.386;2023-04-21T09:05:25;96721.47;;;20.22;42.50
9439;BME280;5176;42.622;25.386;2023-04-21T09:08:06;96710.78;;;20.30;43.88
9439;BME280;5176;42.622;25.386;2023-04-21T09:10:42;96711.16;;;20.19;44.65
9439;BME280;5176;42.622;25.386;2023-04-21T09:13:10;96711.66;;;20.23;44.63
9439;BME280;5176;42.622;25.386;2023-04-21T09:15:40;96709.69;;;20.08;44.08
9439;BME280;5176;42.622;25.386;2023-04-21T09:18:15;96711.91;;;19.80;44.27
9439;BME280;5176;42.622;25.386;2023-04-21T09:20:46;96707.41;;;19.65;44.47
9439;BME280;5176;42.622;25.386;2023-04-21T09:23:14;96716.53;;;19.46;45.94
9439;BME280;5176;42.622;25.386;2023-04-21T09:25:44;96712.22;;;19.37;45.54
9439;BME280;5176;42.622;25.386;2023-04-21T09:28:13;96704.72;;;19.24;44.98
9439;BME280;5176;42.622;25.386;2023-04-21T09:30:42;96709.38;;;19.30;46.49
9439;BME280;5176;42.622;25.386;2023-04-21T09:33:16;96702.72;;;19.10;46.47
9439;BME280;5176;42.622;25.386;2023-04-21T09:35:45;96701.06;;;19.00;46.06
9439;BME280;5176;42.622;25.386;2023-04-21T09:38:14;96694.38;;;18.88;46.72
9439;BME280;5176;42.622;25.386;2023-04-21T09:40:44;96695.34;;;18.79;47.56
9439;BME280;5176;42.622;25.386;2023-04-21T09:43:14;96691.56;;;18.90;47.51
9439;BME280;5176;42.622;25.386;2023-04-21T09:45:43;96695.38;;;18.87;46.40
9439;BME280;5176;42.622;25.386;2023-04-21T09:48:14;96694.75;;;18.93;47.12
9439;BME280;5176;42.622;25.386;2023-04-21T09:50:45;96683.94;;;18.87;47.27
9439;BME280;5176;42.622;25.386;2023-04-21T09:53:15;96681.28;;;18.87;47.30
9439;BME280;5176;42.622;25.386;2023-04-21T09:55:47;96682.28;;;19.02;46.59
9439;BME280;5176;42.622;25.386;2023-04-21T09:58:19;96680.31;;;19.37;45.33
9439;BME280;5176;42.622;25.386;2023-04-21T10:00:51;96681.69;;;19.73;44.07
9439;BME280;5176;42.622;25.386;2023-04-21T10:03:26;96683.25;;;19.99;43.37
9439;BME280;5176;42.622;25.386;2023-04-21T10:05:55;96678.84;;;20.30;43.24
9439;BME280;5176;42.622;25.386;2023-04-21T10:08:24;96670.00;;;20.46;43.80
9439;BME280;5176;42.622;25.386;2023-04-21T10:10:52;96670.56;;;20.64;43.45
9439;BME280;5176;42.622;25.386;2023-04-21T10:13:21;96666.19;;;20.80;42.97
9439;BME280;5176;42.622;25.386;2023-04-21T10:16:00;96662.25;;;20.67;41.68
9439;BME280;5176;42.622;25.386;2023-04-21T10:18:31;96661.19;;;20.77;42.69
9439;BME280;5176;42.622;25.386;2023-04-21T10:21:05;96664.84;;;21.07;42.63
9439;BME280;5176;42.622;25.386;2023-04-21T10:23:37;96670.75;;;20.94;42.05
9439;BME280;5176;42.622;25.386;2023-04-21T10:26:09;96664.66;;;20.54;43.02
9439;BME280;5176;42.622;25.386;2023-04-21T10:28:41;96660.13;;;20.16;43.84
9439;BME280;5176;42.622;25.386;2023-04-21T10:31:29;96658.72;;;19.64;44.35
9439;BME280;5176;42.622;25.386;2023-04-21T10:34:18;96661.25;;;19.33;45.79
9439;BME280;5176;42.622;25.386;2023-04-21T10:37:08;96669.19;;;19.17;46.35
9439;BME280;5176;42.622;25.386;2023-04-21T10:39:51;96664.88;;;19.24;46.47
9439;BME280;5176;42.622;25.386;2023-04-21T10:42:25;96664.88;;;19.16;45.75
9439;BME280;5176;42.622;25.386;2023-04-21T10:45:09;96667.88;;;19.21;46.80
9439;BME280;5176;42.622;25.386;2023-04-21T10:47:43;96673.00;;;19.22;46.19
9439;BME280;5176;42.622;25.386;2023-04-21T10:50:20;96677.97;;;19.01;46.37
9439;BME280;5176;42.622;25.386;2023-04-21T10:52:54;96677.97;;;18.93;46.75
9439;BME280;5176;42.622;25.386;2023-04-21T10:55:26;96677.63;;;18.88;46.48
9439;BME280;5176;42.622;25.386;2023-04-21T10:58:00;96666.94;;;18.71;46.48
9439;BME280;5176;42.622;25.386;2023-04-21T11:00:28;96658.25;;;18.53;47.98
9439;BME280;5176;42.622;25.386;2023-04-21T11:02:59;96673.00;;;18.47;47.91
9439;BME280;5176;42.622;25.386;2023-04-21T11:05:33;96676.16;;;18.51;47.94
9439;BME280;5176;42.622;25.386;2023-04-21T11:08:08;96675.16;;;18.52;47.58
9439;BME280;5176;42.622;25.386;2023-04-21T11:10:47;96667.34;;;18.42;47.32
9439;BME280;5176;42.622;25.386;2023-04-21T11:13:16;96659.28;;;18.60;49.26
9439;BME280;5176;42.622;25.386;2023-04-21T11:16:02;96658.56;;;19.00;47.33
9439;BME280;5176;42.622;25.386;2023-04-21T11:18:42;96674.00;;;19.21;49.25
9439;BME280;5176;42.622;25.386;2023-04-21T11:21:14;96668.69;;;19.13;47.52
9439;BME280;5176;42.622;25.386;2023-04-21T11:23:50;96668.84;;;18.87;47.59
9439;BME280;5176;42.622;25.386;2023-04-21T11:26:30;96670.31;;;18.82;48.70
9439;BME280;5176;42.622;25.386;2023-04-21T11:29:02;96667.47;;;18.75;48.64
9439;BME280;5176;42.622;25.386;2023-04-21T11:31:32;96677.09;;;18.76;48.51
9439;BME280;5176;42.622;25.386;2023-04-21T11:34:02;96673.09;;;18.72;48.23
9439;BME280;5176;42.622;25.386;2023-04-21T11:36:35;96668.31;;;18.75;49.28
9439;BME280;5176;42.622;25.386;2023-04-21T11:39:04;96659.97;;;18.70;48.88
9439;BME280;5176;42.622;25.386;2023-04-21T11:41:38;96664.81;;;18.75;48.02
9439;BME280;5176;42.622;25.386;2023-04-21T11:44:07;96660.50;;;18.74;48.52
9439;BME280;5176;42.622;25.386;2023-04-21T11:46:36;96672.44;;;18.78;48.37
9439;BME280;5176;42.622;25.386;2023-04-21T11:49:06;96670.34;;;19.14;49.32
9439;BME280;5176;42.622;25.386;2023-04-21T11:51:38;96660.56;;;19.31;47.92
9439;BME280;5176;42.622;25.386;2023-04-21T11:54:08;96671.88;;;19.41;47.19
9439;BME280;5176;42.622;25.386;2023-04-21T11:56:38;96669.88;;;19.35;45.15
9439;BME280;5176;42.622;25.386;2023-04-21T11:59:08;96671.84;;;19.49;46.92
9439;BME280;5176;42.622;25.386;2023-04-21T12:01:43;96676.50;;;19.72;46.01
9439;BME280;5176;42.622;25.386;2023-04-21T12:04:14;96666.16;;;19.85;44.74
9439;BME280;5176;42.622;25.386;2023-04-21T12:06:45;96669.00;;;19.83;44.33
9439;BME280;5176;42.622;25.386;2023-04-21T12:09:17;96674.13;;;20.01;43.95
9439;BME280;5176;42.622;25.386;2023-04-21T12:11:47;96670.41;;;20.19;43.76
9439;BME280;5176;42.622;25.386;2023-04-21T12:14:17;96655.81;;;20.14;44.36
9439;BME280;5176;42.622;25.386;2023-04-21T12:16:48;96654.59;;;20.25;43.35
9439;BME280;5176;42.622;25.386;2023-04-21T12:19:23;96643.03;;;20.49;44.49
9439;BME280;5176;42.622;25.386;2023-04-21T12:21:54;96648.50;;;20.56;43.06
9439;BME280;5176;42.622;25.386;2023-04-21T12:24:23;96648.13;;;20.67;43.27
9439;BME280;5176;42.622;25.386;2023-04-21T12:26:53;96644.38;;;20.53;42.31
9439;BME280;5176;42.622;25.386;2023-04-21T12:29:21;96647.78;;;20.23;43.04
9439;BME280;5176;42.622;25.386;2023-04-21T12:31:50;96654.88;;;19.83;42.41
9439;BME280;5176;42.622;25.386;2023-04-21T12:34:18;96652.56;;;19.55;43.04
9439;BME280;5176;42.622;25.386;2023-04-21T12:36:47;96646.94;;;19.42;44.16
9439;BME280;5176;42.622;25.386;2023-04-21T12:39:17;96647.44;;;19.29;43.41
9439;BME280;5176;42.622;25.386;2023-04-21T12:41:47;96646.09;;;19.25;43.66
9439;BME280;5176;42.622;25.386;2023-04-21T12:44:16;96642.63;;;19.25;43.22
9439;BME280;5176;42.622;25.386;2023-04-21T12:46:45;96647.44;;;19.29;43.37
9439;BME280;5176;42.622;25.386;2023-04-21T12:49:14;96650.59;;;19.33;42.75
9439;BME280;5176;42.622;25.386;2023-04-21T12:51:43;96645.28;;;19.41;43.87
9439;BME280;5176;42.622;25.386;2023-04-21T12:54:13;96641.31;;;19.62;44.15
9439;BME280;5176;42.622;25.386;2023-04-21T12:56:43;96647.78;;;19.59;43.02
9439;BME280;5176;42.622;25.386;2023-04-21T12:59:12;96656.41;;;19.69;42.91
9439;BME280;5176;42.622;25.386;2023-04-21T13:01:41;96646.56;;;19.86;42.11
9439;BME280;5176;42.622;25.386;2023-04-21T13:04:10;96652.16;;;20.07;41.14
9439;BME280;5176;42.622;25.386;2023-04-21T13:06:39;96643.94;;;19.70;41.32
9439;BME280;5176;42.622;25.386;2023-04-21T13:09:08;96650.06;;;19.46;42.63
9439;BME280;5176;42.622;25.386;2023-04-21T13:11:37;96638.00;;;19.59;42.50
9439;BME280;5176;42.622;25.386;2023-04-21T13:14:07;96639.44;;;19.70;42.33
9439;BME280;5176;42.622;25.386;2023-04-21T13:16:36;96638.97;;;19.75;42.07
9439;BME280;5176;42.622;25.386;2023-04-21T13:19:04;96630.63;;;19.78;41.97
9439;BME280;5176;42.622;25.386;2023-04-21T13:21:33;96643.78;;;19.79;42.43